Time;durP1;ratioP1;P1;durP2;ratioP2;P2;SDS_P1;SDS_P2;PMS_P1;PMS_P2;Temp;Humidity;BMP_temperature;BMP_pressure;BME280_temperature;BME280_humidity;BME280_pressure;Samples;Min_cycle;Max_cycle;Signal;HPM_P1;HPM_P2
2022/07/04 00:04:09;;;;;;;6.70;3.50;;;;;;;22.20;52.86;99115.27;233770;1215;138779;-58
2022/07/04 00:09:13;;;;;;;5.40;4.10;;;;;;;22.10;52.92;99110.27;233572;1215;138824;-58
2022/07/04 00:14:16;;;;;;;6.00;3.70;;;;;;;22.01;53.02;99110.60;233548;1217;138652;-58
2022/07/04 00:19:19;;;;;;;6.60;3.80;;;;;;;21.94;53.09;99107.00;233575;1217;138871;-58
2022/07/04 00:24:22;;;;;;;4.00;3.50;;;;;;;21.85;53.23;99102.91;233718;1217;139146;-58
2022/07/04 00:29:25;;;;;;;4.50;3.50;;;;;;;21.76;53.40;99104.23;233664;1216;138707;-58
2022/07/04 00:34:29;;;;;;;4.50;3.50;;;;;;;21.66;53.56;99091.95;233609;1217;139079;-59
2022/07/04 00:39:32;;;;;;;5.90;3.40;;;;;;;21.61;53.71;99098.64;233567;1217;140740;-59
2022/07/04 00:44:42;;;;;;;5.50;3.30;;;;;;;21.57;53.83;99095.27;233504;1216;138915;-58
2022/07/04 00:49:46;;;;;;;7.30;3.60;;;;;;;21.57;53.97;99089.87;233586;1217;139070;-55
2022/07/04 00:54:49;;;;;;;3.70;3.30;;;;;;;21.54;54.04;99090.35;233701;1217;139508;-56
2022/07/04 00:59:52;;;;;;;4.40;3.40;;;;;;;21.53;54.09;99094.63;233600;1217;139308;-56
2022/07/04 01:04:55;;;;;;;4.20;3.60;;;;;;;21.46;54.15;99089.72;233463;1218;139137;-56
2022/07/04 01:09:58;;;;;;;5.10;3.10;;;;;;;21.38;54.15;99095.64;233527;1217;138647;-58
2022/07/04 01:15:02;;;;;;;3.80;3.10;;;;;;;21.29;54.27;99100.38;233693;1217;138943;-56
2022/07/04 01:20:05;;;;;;;5.10;3.30;;;;;;;21.20;54.32;99102.39;233613;1215;138822;-56
2022/07/04 01:25:09;;;;;;;6.70;3.30;;;;;;;21.11;54.47;99097.95;233714;1217;142154;-56
2022/07/04 01:30:12;;;;;;;4.50;3.60;;;;;;;21.05;54.72;99093.15;233774;1217;139149;-56
2022/07/04 01:35:15;;;;;;;6.60;3.80;;;;;;;20.97;54.75;99086.08;233633;1217;139010;-56
2022/07/04 01:40:19;;;;;;;5.60;3.70;;;;;;;20.89;54.93;99087.61;233571;1217;138910;-57
2022/07/04 01:45:21;;;;;;;4.40;3.70;;;;;;;20.82;55.02;99088.77;233600;1215;138836;-57
2022/07/04 01:50:24;;;;;;;4.60;3.50;;;;;;;20.71;55.01;99088.17;233626;1217;139205;-57
2022/07/04 01:55:29;;;;;;;4.40;3.40;;;;;;;20.61;55.11;99087.44;233565;1217;138994;-56
2022/07/04 02:05:53;;;;;;;4.50;3.60;;;;;;;20.58;55.47;99094.98;233603;1217;139287;-56
2022/07/04 02:10:56;;;;;;;6.40;3.80;;;;;;;20.54;55.57;99088.35;233549;1217;138986;-56
2022/07/04 02:15:59;;;;;;;4.80;3.50;;;;;;;20.50;55.57;99091.08;233685;1217;138602;-56
2022/07/04 02:21:03;;;;;;;5.00;3.60;;;;;;;20.45;55.78;99092.47;233652;1217;139051;-56
2022/07/04 02:26:06;;;;;;;4.70;3.80;;;;;;;20.38;55.95;99098.73;233676;1217;138872;-56
2022/07/04 02:31:09;;;;;;;5.50;3.30;;;;;;;20.35;56.17;99107.73;233605;1216;139188;-57
2022/07/04 02:36:13;;;;;;;7.10;3.90;;;;;;;20.29;56.22;99106.03;233459;1216;139637;-56
2022/07/04 02:41:15;;;;;;;4.00;3.60;;;;;;;20.25;56.27;99108.25;233673;1217;139239;-57
2022/07/04 02:46:18;;;;;;;8.40;3.90;;;;;;;20.21;56.43;99109.52;233668;1217;140115;-57
2022/07/04 02:51:21;;;;;;;6.90;4.00;;;;;;;20.15;56.40;99112.14;233601;1217;140088;-57
2022/07/04 02:56:25;;;;;;;6.80;4.10;;;;;;;20.15;56.48;99112.86;233639;1216;139130;-57
2022/07/04 03:01:28;;;;;;;4.90;3.70;;;;;;;20.16;56.40;99112.70;233572;1217;139927;-57
2022/07/04 03:06:31;;;;;;;5.00;3.60;;;;;;;20.16;56.49;99105.88;233652;1217;139117;-56
2022/07/04 03:11:35;;;;;;;6.30;3.90;;;;;;;20.11;56.41;99110.52;233782;1217;139392;-57
2022/07/04 03:16:38;;;;;;;10.20;4.40;;;;;;;20.10;56.50;99111.21;233653;1216;138574;-56
2022/07/04 03:21:41;;;;;;;6.90;4.40;;;;;;;20.04;56.55;99106.51;233736;1216;138770;-56
2022/07/04 03:26:44;;;;;;;5.80;4.10;;;;;;;20.01;56.64;99105.39;233693;1217;138859;-55
2022/07/04 03:31:47;;;;;;;7.20;4.40;;;;;;;20.02;56.79;99104.42;233573;1216;139138;-56
2022/07/04 03:36:50;;;;;;;317.20;283.00;;;;;;;20.00;56.87;99105.13;233633;1217;140281;-56
2022/07/04 03:41:53;;;;;;;13.00;10.40;;;;;;;20.08;57.00;99107.02;233340;1217;139466;-56
2022/07/04 03:46:55;;;;;;;108.00;81.30;;;;;;;20.12;56.92;99106.88;233632;1217;139356;-56
2022/07/04 03:51:58;;;;;;;17.70;13.10;;;;;;;20.16;57.20;99105.41;233628;1217;139411;-55
2022/07/04 03:57:01;;;;;;;4.80;3.80;;;;;;;20.26;57.22;99107.73;233773;1217;139703;-57
2022/07/04 04:02:05;;;;;;;8.70;4.20;;;;;;;20.40;57.02;99112.41;233669;1216;138996;-56
2022/07/04 04:07:08;;;;;;;8.60;4.40;;;;;;;20.53;57.29;99108.63;233489;1217;139055;-56
2022/07/04 04:12:11;;;;;;;7.20;4.20;;;;;;;20.66;57.30;99104.29;233618;1217;139459;-56
2022/07/04 04:17:14;;;;;;;5.50;4.10;;;;;;;20.83;57.30;99110.20;233632;1217;139361;-56
2022/07/04 04:22:17;;;;;;;8.70;4.10;;;;;;;20.94;57.21;99122.98;233654;1216;138739;-56
2022/07/04 04:27:20;;;;;;;56.40;46.30;;;;;;;21.05;57.24;99120.54;233678;1217;139112;-56
2022/07/04 04:32:23;;;;;;;13.10;8.10;;;;;;;21.18;57.37;99117.44;233596;1217;139770;-56
2022/07/04 04:37:26;;;;;;;5.70;4.60;;;;;;;21.27;57.41;99108.85;233497;1217;138457;-55
2022/07/04 04:42:29;;;;;;;8.50;4.90;;;;;;;21.41;57.46;99106.52;233499;1217;139433;-56
2022/07/04 04:47:32;;;;;;;8.40;5.60;;;;;;;21.57;57.45;99114.06;233668;1216;139365;-55
2022/07/04 04:52:35;;;;;;;7.60;4.70;;;;;;;21.72;57.56;99110.80;233640;1217;138653;-56
2022/07/04 04:57:38;;;;;;;6.20;4.70;;;;;;;21.89;57.34;99105.92;233456;1217;139298;-56
2022/07/04 05:02:41;;;;;;;8.40;5.10;;;;;;;22.15;57.36;99115.39;233408;1217;140793;-56
2022/07/04 05:07:44;;;;;;;9.90;5.30;;;;;;;22.28;57.16;99097.05;233543;1217;139989;-56
2022/07/04 05:12:48;;;;;;;9.60;5.90;;;;;;;22.47;57.06;99099.48;233393;1217;139497;-55
2022/07/04 05:17:51;;;;;;;10.70;5.50;;;;;;;22.57;56.97;99099.18;233555;1217;138173;-56
2022/07/04 05:22:54;;;;;;;7.50;5.70;;;;;;;22.66;56.75;99095.61;233513;1217;139850;-55
2022/07/04 05:27:57;;;;;;;9.20;6.10;;;;;;;22.74;56.53;99095.93;233508;1217;138959;-57
2022/07/04 05:33:01;;;;;;;8.30;6.70;;;;;;;22.83;56.46;99112.71;233488;1217;139481;-56
2022/07/04 05:38:04;;;;;;;7.90;6.70;;;;;;;22.84;56.30;99105.56;233617;1217;140723;-56
2022/07/04 05:43:07;;;;;;;18.30;6.90;;;;;;;22.94;56.24;99104.33;233707;1217;139727;-56
2022/07/04 05:48:10;;;;;;;9.20;6.60;;;;;;;23.02;56.15;99101.80;233607;1217;139926;-56
2022/07/04 05:53:13;;;;;;;9.60;6.20;;;;;;;23.07;56.03;99105.44;233486;1217;140244;-55
2022/07/04 05:58:16;;;;;;;8.00;6.00;;;;;;;23.16;55.98;99101.81;233540;1217;140152;-56
2022/07/04 06:03:19;;;;;;;9.20;6.20;;;;;;;23.29;55.76;99108.63;233496;1217;139242;-55
2022/07/04 06:08:26;;;;;;;11.80;6.30;;;;;;;23.40;55.63;99108.56;233563;1217;140608;-57
2022/07/04 06:13:29;;;;;;;10.60;6.60;;;;;;;23.50;55.48;99107.20;233595;1217;139368;-56
2022/07/04 06:18:32;;;;;;;9.00;6.00;;;;;;;23.61;55.40;99123.95;233450;1217;139630;-56
2022/07/04 06:23:35;;;;;;;8.40;6.20;;;;;;;23.73;55.16;99124.69;233557;1217;138519;-56
2022/07/04 06:28:38;;;;;;;8.10;5.90;;;;;;;23.78;54.88;99115.35;233637;1217;139129;-55
2022/07/04 06:39:11;;;;;;;5.80;5.20;;;;;;;24.02;54.64;99107.02;233356;1217;139585;-55
2022/07/04 06:44:14;;;;;;;12.90;5.80;;;;;;;24.12;54.47;99101.14;233467;1217;138873;-56
2022/07/04 06:49:17;;;;;;;6.80;5.40;;;;;;;24.19;54.45;99096.77;233609;1217;139362;-55
2022/07/04 06:54:20;;;;;;;8.70;5.20;;;;;;;24.28;54.29;99091.77;233702;1217;139082;-56
2022/07/04 06:59:23;;;;;;;8.50;5.40;;;;;;;24.36;54.22;99090.34;233413;1217;138614;-55
2022/07/04 07:04:26;;;;;;;11.50;5.50;;;;;;;24.52;54.05;99097.13;233415;1217;139307;-56
2022/07/04 07:09:29;;;;;;;12.20;5.80;;;;;;;24.54;53.74;99089.23;233549;1217;139648;-55
2022/07/04 07:14:32;;;;;;;8.30;5.80;;;;;;;24.61;53.58;99090.72;233460;1217;140101;-55
2022/07/04 07:19:35;;;;;;;10.60;5.40;;;;;;;24.79;53.69;99100.39;233513;1217;138915;-56
2022/07/04 07:24:39;;;;;;;10.30;6.00;;;;;;;24.95;53.54;99096.31;233614;1215;139291;-56
2022/07/04 07:29:42;;;;;;;7.30;5.40;;;;;;;25.05;53.39;99083.20;233600;1217;140421;-56
2022/07/04 07:34:45;;;;;;;12.20;6.60;;;;;;;25.22;53.22;99085.55;233397;1217;138888;-56
2022/07/04 07:39:49;;;;;;;7.00;5.60;;;;;;;25.36;52.85;99081.30;233545;1217;139226;-56
2022/07/04 07:44:52;;;;;;;12.40;8.60;;;;;;;25.46;52.56;99075.86;233607;1217;139657;-56
2022/07/04 07:49:56;;;;;;;6.40;5.30;;;;;;;25.58;52.42;99073.63;233476;1217;139812;-56
2022/07/04 07:55:00;;;;;;;152.60;131.60;;;;;;;25.68;52.14;99073.63;233381;1217;139260;-56
2022/07/04 08:00:05;;;;;;;16.00;11.10;;;;;;;25.81;52.01;99070.58;233769;1217;139308;-57
2022/07/04 08:05:14;;;;;;;8.50;6.30;;;;;;;25.97;51.70;99075.20;233637;1215;139716;-57
2022/07/04 08:10:17;;;;;;;8.70;5.20;;;;;;;26.06;51.15;99072.91;233457;1217;138684;-57
2022/07/04 08:15:20;;;;;;;7.10;5.40;;;;;;;26.13;50.71;99069.83;233397;1217;139743;-57
2022/07/04 08:20:23;;;;;;;8.00;5.40;;;;;;;26.31;50.28;99079.23;233511;1217;138390;-57
2022/07/04 08:25:26;;;;;;;6.10;5.30;;;;;;;26.38;49.69;99075.94;233557;1217;140550;-57
2022/07/04 08:30:29;;;;;;;6.20;5.50;;;;;;;26.47;48.96;99080.97;233390;1217;140230;-57
2022/07/04 08:35:33;;;;;;;13.30;9.80;;;;;;;26.58;48.83;99074.52;233551;1217;139611;-57
2022/07/04 08:40:37;;;;;;;6.20;5.10;;;;;;;26.67;48.02;99079.41;233341;1217;139382;-57
2022/07/04 08:45:40;;;;;;;8.40;4.80;;;;;;;26.72;47.29;99084.23;233427;1219;138966;-57
2022/07/04 08:51:16;;;;;;;5.50;4.60;;;;;;;26.82;46.56;99084.73;233479;1217;138967;-57
2022/07/04 09:01:42;;;;;;;6.00;4.80;;;;;;;27.05;45.97;99087.63;233429;1217;141875;-56
2022/07/04 09:06:45;;;;;;;5.90;4.80;;;;;;;27.17;45.43;99093.16;233433;1217;139016;-57
2022/07/04 09:11:48;;;;;;;6.40;5.00;;;;;;;27.23;45.20;99083.92;233708;1217;138838;-57
2022/07/04 09:16:53;;;;;;;6.60;5.10;;;;;;;27.35;45.04;99087.13;233626;1217;139031;-57
2022/07/04 09:22:01;;;;;;;9.90;5.10;;;;;;;27.52;44.98;99089.11;233468;1217;138951;-56
2022/07/04 09:27:04;;;;;;;9.30;4.80;;;;;;;27.67;44.71;99087.11;233471;1217;138751;-56
2022/07/04 09:32:07;;;;;;;8.20;5.50;;;;;;;27.81;44.73;99076.33;233537;1217;138668;-56
2022/07/04 09:37:10;;;;;;;6.30;5.60;;;;;;;27.88;44.73;99074.27;233643;1217;140558;-56
2022/07/04 09:42:13;;;;;;;7.80;6.10;;;;;;;28.02;44.84;99070.13;233532;1217;138927;-57
2022/07/04 09:47:24;;;;;;;6.20;5.30;;;;;;;28.19;44.91;99068.98;233481;1217;138976;-56
2022/07/04 09:52:29;;;;;;;7.40;5.50;;;;;;;28.37;44.45;99066.11;233393;1217;139580;-55
2022/07/04 09:57:33;;;;;;;5.30;4.50;;;;;;;28.48;44.07;99064.68;233526;1217;138997;-57
2022/07/04 10:02:36;;;;;;;8.10;5.30;;;;;;;28.70;43.71;99064.40;233566;1217;138670;-57
2022/07/04 10:07:43;;;;;;;9.30;4.50;;;;;;;28.85;43.10;99053.17;233438;1217;138782;-57
2022/07/04 10:12:49;;;;;;;7.40;4.60;;;;;;;29.02;42.83;99042.88;233491;1217;138852;-57
2022/07/04 10:17:52;;;;;;;5.50;3.50;;;;;;;29.20;42.62;99027.88;233760;1216;138996;-58
2022/07/04 10:22:57;;;;;;;6.50;3.70;;;;;;;29.38;42.05;99030.54;233485;1217;140203;-56
2022/07/04 10:28:00;;;;;;;9.10;4.00;;;;;;;29.61;41.74;99028.27;233656;1217;139046;-56
2022/07/04 10:33:06;;;;;;;7.90;3.90;;;;;;;29.74;40.88;99027.59;233655;1215;139042;-57
2022/07/04 10:38:11;;;;;;;8.10;4.40;;;;;;;29.88;40.68;99023.70;233645;1217;139439;-57
2022/07/04 10:43:50;;;;;;;4.10;3.60;;;;;;;29.97;40.74;99020.27;233595;1217;138771;-57
2022/07/04 10:48:57;;;;;;;6.00;4.50;;;;;;;29.92;40.38;99018.36;233568;1216;139211;-57
2022/07/04 10:54:04;;;;;;;6.10;3.80;;;;;;;29.87;40.57;99011.42;233748;1217;139610;-56
2022/07/04 10:59:12;;;;;;;4.10;3.70;;;;;;;30.01;40.40;99011.74;233740;1216;138294;-57
2022/07/04 11:04:44;;;;;;;7.50;3.60;;;;;;;30.14;40.18;99014.73;233472;1217;138810;-57
2022/07/04 11:10:13;;;;;;;11.10;9.00;;;;;;;30.29;39.61;99015.27;233503;1217;139010;-57
2022/07/04 11:15:17;;;;;;;8.00;3.90;;;;;;;30.45;39.69;99005.41;233610;1216;139832;-56
2022/07/04 11:20:21;;;;;;;6.70;3.60;;;;;;;30.72;39.52;99003.38;233665;1216;139264;-56
2022/07/04 11:25:24;;;;;;;4.60;3.90;;;;;;;30.99;39.07;99006.30;233394;1217;140067;-57
2022/07/04 11:30:27;;;;;;;4.80;3.40;;;;;;;31.12;38.84;99009.80;233712;1217;138834;-56
2022/07/04 11:35:31;;;;;;;;;;;;;;;31.27;38.28;99003.96;233457;1217;141371;-57
2022/07/04 11:46:12;;;;;;;5.20;3.30;;;;;;;31.57;37.32;98999.19;233513;1217;139315;-57
2022/07/04 11:51:18;;;;;;;5.20;3.20;;;;;;;31.80;37.25;98994.21;233606;1217;139107;-57
2022/07/04 11:56:21;;;;;;;3.50;2.80;;;;;;;32.04;37.12;98986.16;233278;1217;139064;-57
2022/07/04 12:01:28;;;;;;;4.60;3.20;;;;;;;32.23;36.51;98983.83;233422;1217;139758;-57
2022/07/04 12:06:31;;;;;;;6.90;3.30;;;;;;;32.38;35.97;98982.61;233445;1217;138858;-57
2022/07/04 12:11:59;;;;;;;3.70;3.30;;;;;;;32.54;35.46;98975.35;233559;1217;139149;-57
2022/07/04 12:17:19;;;;;;;4.70;3.40;;;;;;;32.77;35.45;98967.19;233307;1216;138917;-57
2022/07/04 12:22:34;;;;;;;4.30;3.30;;;;;;;32.97;34.81;98971.98;232954;1217;138771;-58
2022/07/04 12:27:37;;;;;;;5.30;3.60;;;;;;;33.14;34.62;98969.19;232722;1217;139005;-58
2022/07/04 12:32:45;;;;;;;4.10;3.50;;;;;;;33.12;34.75;98959.51;232353;1217;139444;-57
2022/07/04 12:38:23;;;;;;;5.40;3.70;;;;;;;33.21;34.63;98966.85;233172;1217;138731;-57
2022/07/04 12:43:44;;;;;;;5.20;3.90;;;;;;;33.35;34.37;98965.20;232636;1216;139863;-57
2022/07/04 12:48:49;;;;;;;77.80;61.20;;;;;;;33.62;34.55;98950.44;232685;1217;140428;-57
2022/07/04 13:03:55;;;;;;;7.60;4.90;;;;;;;33.59;33.30;98954.20;231367;1230;654139;-58
2022/07/04 13:08:59;;;;;;;8.70;4.50;;;;;;;33.16;33.22;98947.80;232653;1222;137650;-58
2022/07/04 13:14:02;;;;;;;4.20;3.80;;;;;;;32.94;33.65;98945.27;232361;1223;137319;-58
2022/07/04 13:19:05;;;;;;;4.40;3.90;;;;;;;33.01;33.68;98953.85;232092;1224;139613;-57
2022/07/04 13:24:08;;;;;;;5.20;3.90;;;;;;;33.14;33.78;98949.72;232537;1223;138283;-58
2022/07/04 13:29:11;;;;;;;4.60;3.80;;;;;;;33.23;33.37;98948.09;231843;1223;139309;-57
2022/07/04 13:34:14;;;;;;;4.70;3.70;;;;;;;33.29;33.03;98947.14;231611;1224;138966;-56
2022/07/04 13:39:17;;;;;;;4.40;3.90;;;;;;;33.35;32.82;98947.32;231593;1224;138152;-56
2022/07/04 13:44:41;;;;;;;4.80;4.10;;;;;;;33.28;32.52;98942.31;232084;1223;138371;-55
2022/07/04 13:49:44;;;;;;;4.20;3.30;;;;;;;33.02;32.53;98936.15;232312;1224;138166;-58
2022/07/04 13:54:47;;;;;;;4.90;3.50;;;;;;;32.76;32.29;98938.05;232233;1223;138434;-58
2022/07/04 13:59:50;;;;;;;5.00;3.70;;;;;;;32.59;32.56;98935.91;231666;1224;137672;-58
2022/07/04 14:04:53;;;;;;;72.50;59.80;;;;;;;32.49;32.28;98934.30;232200;1224;138416;-57
2022/07/04 14:09:56;;;;;;;14.40;9.10;;;;;;;32.56;32.81;98925.30;231576;1222;139388;-57
2022/07/04 14:14:59;;;;;;;10.00;5.60;;;;;;;32.62;32.94;98925.52;232243;1224;138446;-56
2022/07/04 14:20:05;;;;;;;7.80;4.70;;;;;;;32.46;32.91;98922.88;232357;1224;162169;-58
2022/07/04 14:25:09;;;;;;;5.30;3.80;;;;;;;32.25;32.85;98921.75;232403;1224;138712;-57
2022/07/04 14:30:12;;;;;;;8.30;3.60;;;;;;;32.09;32.93;98921.48;232619;1223;138720;-58
2022/07/04 14:35:15;;;;;;;4.40;3.10;;;;;;;31.87;32.90;98927.42;232324;1224;138336;-57
2022/07/04 14:40:18;;;;;;;5.40;3.00;;;;;;;31.77;32.31;98930.61;232275;1225;138180;-58
2022/07/04 14:45:21;;;;;;;5.20;3.10;;;;;;;31.69;32.25;98932.54;232520;1224;138380;-58
2022/07/04 14:50:23;;;;;;;39.10;33.20;;;;;;;31.61;32.13;98932.17;232447;1224;138923;-57
2022/07/04 14:55:27;;;;;;;6.60;4.30;;;;;;;31.59;32.41;98931.34;232305;1224;230049;-58
2022/07/04 15:00:30;;;;;;;4.80;3.20;;;;;;;31.52;32.52;98928.36;232375;1224;138390;-56
2022/07/04 15:05:33;;;;;;;6.30;5.20;;;;;;;31.42;32.49;98918.05;232376;1223;138465;-58
2022/07/04 15:10:36;;;;;;;6.00;2.80;;;;;;;31.39;32.68;98912.96;232409;1224;138586;-58
2022/07/04 15:15:59;;;;;;;7.80;2.80;;;;;;;31.40;32.71;98911.73;232316;1224;139054;-58
2022/07/04 15:26:51;;;;;;;4.60;2.50;;;;;;;31.35;32.32;98904.00;232593;1224;138350;-56
2022/07/04 15:31:54;;;;;;;5.40;2.50;;;;;;;31.41;31.70;98899.60;232612;1224;138658;-58
2022/07/04 15:36:58;;;;;;;5.00;2.10;;;;;;;31.46;31.53;98894.92;232323;1225;138114;-55
2022/07/04 15:42:01;;;;;;;6.00;2.20;;;;;;;31.45;31.30;98894.67;232345;1227;138287;-57
2022/07/04 15:47:07;;;;;;;2.30;2.10;;;;;;;31.38;31.22;98895.49;232500;1224;138926;-57
2022/07/04 15:52:10;;;;;;;7.30;2.50;;;;;;;31.39;31.37;98898.54;232440;1223;138517;-57
2022/07/04 15:57:13;;;;;;;5.70;2.30;;;;;;;31.26;31.07;98890.41;232289;1225;140682;-58
2022/07/04 16:02:26;;;;;;;14.10;9.40;;;;;;;30.97;31.00;98897.16;232224;1226;138449;-55
2022/07/04 16:07:29;;;;;;;12.20;8.80;;;;;;;30.72;31.27;98893.34;232418;1223;138588;-57
2022/07/04 16:12:32;;;;;;;24.20;3.70;;;;;;;30.72;31.40;98899.22;232566;1224;139328;-58
2022/07/04 16:17:37;;;;;;;5.50;2.90;;;;;;;30.72;31.81;98897.86;232046;1223;139126;-58
2022/07/04 16:22:41;;;;;;;5.40;2.80;;;;;;;30.73;31.69;98904.11;232357;1225;138213;-58
2022/07/04 16:27:44;;;;;;;7.10;2.70;;;;;;;30.74;32.03;98901.70;231959;1224;139414;-55
2022/07/04 16:32:47;;;;;;;8.90;2.90;;;;;;;30.71;32.27;98895.25;232519;1223;139661;-58
2022/07/04 16:37:50;;;;;;;3.80;2.70;;;;;;;30.68;32.42;98903.23;232220;1224;138954;-59
2022/07/04 16:42:53;;;;;;;34.20;20.70;;;;;;;30.61;32.28;98907.41;231913;1225;138941;-57
2022/07/04 16:47:56;;;;;;;13.30;5.40;;;;;;;30.59;32.39;98906.25;232498;1223;138788;-58
2022/07/04 16:52:59;;;;;;;9.40;5.60;;;;;;;30.59;32.46;98903.55;232512;1223;138317;-58
2022/07/04 16:58:02;;;;;;;9.30;3.90;;;;;;;30.55;32.32;98902.02;232260;1224;139810;-58
2022/07/04 17:03:06;;;;;;;9.00;4.60;;;;;;;30.54;32.44;98900.27;232508;1223;138783;-57
2022/07/04 17:08:09;;;;;;;9.70;4.50;;;;;;;30.49;32.64;98899.92;232709;1223;139428;-57
2022/07/04 17:13:12;;;;;;;11.10;5.70;;;;;;;30.44;33.13;98898.91;232709;1223;138554;-58
2022/07/04 17:18:15;;;;;;;12.10;4.00;;;;;;;30.34;33.52;98903.52;232573;1224;139674;-58
2022/07/04 17:23:20;;;;;;;10.80;4.30;;;;;;;30.25;33.78;98901.79;232675;1224;139263;-59
2022/07/04 17:28:23;;;;;;;8.50;3.50;;;;;;;30.20;33.68;98896.89;233204;1223;139566;-59
2022/07/04 17:33:25;;;;;;;9.50;3.60;;;;;;;30.11;34.01;98896.81;233380;1223;140404;-59
2022/07/04 17:38:28;;;;;;;12.20;3.60;;;;;;;30.07;34.21;98909.09;233335;1221;138494;-59
2022/07/04 17:43:33;;;;;;;8.70;3.40;;;;;;;30.01;34.31;98906.39;233710;1220;138997;-58
2022/07/04 17:48:36;;;;;;;9.10;3.70;;;;;;;29.98;34.55;98906.30;233882;1219;139282;-59
2022/07/04 17:53:39;;;;;;;12.50;3.50;;;;;;;29.92;34.27;98898.92;233940;1219;139723;-59
2022/07/04 17:58:42;;;;;;;6.80;3.50;;;;;;;29.89;34.79;98900.59;233753;1220;138365;-58
2022/07/04 18:03:45;;;;;;;7.90;3.70;;;;;;;29.84;34.82;98900.84;233610;1220;138617;-57
2022/07/04 18:08:48;;;;;;;396.40;331.50;;;;;;;29.76;35.30;98909.34;233725;1220;138116;-59
2022/07/04 18:13:51;;;;;;;84.70;72.50;;;;;;;29.70;35.39;98914.92;233737;1220;138730;-57
2022/07/04 18:18:54;;;;;;;16.80;11.70;;;;;;;29.66;35.85;98917.05;233791;1220;138877;-58
2022/07/04 18:23:57;;;;;;;9.20;5.80;;;;;;;29.60;36.03;98918.17;233724;1220;139399;-58
2022/07/04 18:29:00;;;;;;;7.80;5.10;;;;;;;29.56;36.01;98917.17;233479;1220;139316;-58
2022/07/04 18:34:03;;;;;;;9.40;5.20;;;;;;;29.47;36.16;98912.67;233536;1219;138704;-56
2022/07/04 18:39:06;;;;;;;7.40;4.80;;;;;;;29.40;36.27;98908.48;233589;1220;138347;-57
2022/07/04 18:44:09;;;;;;;50.60;45.10;;;;;;;29.32;36.61;98907.33;233227;1220;139458;-57
2022/07/04 18:49:12;;;;;;;23.20;19.30;;;;;;;29.27;36.81;98911.36;233465;1220;139729;-57
2022/07/04 18:54:15;;;;;;;30.80;26.90;;;;;;;29.19;37.05;98904.98;233527;1219;140686;-58
2022/07/04 18:59:20;;;;;;;173.60;152.60;;;;;;;29.15;37.32;98910.88;233667;1220;138736;-58
2022/07/04 19:04:23;;;;;;;21.50;17.80;;;;;;;29.08;37.67;98907.52;233705;1219;139922;-58
2022/07/04 19:09:27;;;;;;;7.60;6.60;;;;;;;29.04;37.69;98922.02;233731;1220;138900;-59
2022/07/04 19:14:30;;;;;;;8.20;5.40;;;;;;;28.94;37.91;98926.02;233582;1220;138464;-58
2022/07/04 19:19:33;;;;;;;135.30;108.30;;;;;;;28.88;38.20;98929.63;233746;1219;138874;-59
2022/07/04 19:24:39;;;;;;;25.80;21.80;;;;;;;28.77;38.39;98926.08;233653;1220;139118;-58
2022/07/04 19:29:43;;;;;;;10.10;5.70;;;;;;;28.69;38.55;98938.74;233747;1220;138612;-59
2022/07/04 19:34:47;;;;;;;9.20;4.90;;;;;;;28.59;38.63;98939.52;233775;1218;139962;-59
2022/07/04 19:39:50;;;;;;;94.80;85.00;;;;;;;28.48;38.75;98948.39;233448;1220;143232;-59
2022/07/04 19:44:58;;;;;;;19.20;11.90;;;;;;;28.39;39.09;98946.66;233463;1220;139054;-59
2022/07/04 19:50:05;;;;;;;11.60;6.00;;;;;;;28.35;39.30;98953.34;233602;1220;139090;-59
2022/07/04 19:55:10;;;;;;;13.60;6.20;;;;;;;28.28;39.67;98956.05;233825;1220;138789;-57
2022/07/04 20:00:16;;;;;;;12.80;6.70;;;;;;;28.23;39.97;98966.23;233685;1220;139471;-60
2022/07/04 20:05:19;;;;;;;11.00;6.30;;;;;;;28.20;40.21;98967.45;233518;1220;138461;-58
2022/07/04 20:10:23;;;;;;;18.40;5.70;;;;;;;28.19;40.15;98971.59;233223;1221;138441;-58
2022/07/04 20:15:27;;;;;;;24.30;16.70;;;;;;;28.21;40.10;98973.56;233349;1220;139359;-58
2022/07/04 20:20:30;;;;;;;88.10;76.30;;;;;;;28.21;40.49;98972.92;233489;1220;139680;-58
2022/07/04 20:25:33;;;;;;;27.00;19.10;;;;;;;28.11;40.67;98972.30;233335;1221;139411;-56
2022/07/04 20:30:36;;;;;;;16.00;6.30;;;;;;;28.03;41.11;98981.68;233589;1220;138925;-57
2022/07/04 20:35:39;;;;;;;11.60;5.90;;;;;;;27.97;41.15;98983.45;233857;1220;138885;-56
2022/07/04 20:40:44;;;;;;;18.90;5.90;;;;;;;27.88;41.28;98989.23;233604;1220;139643;-58
2022/07/04 20:45:47;;;;;;;16.60;5.70;;;;;;;27.76;41.33;98993.59;233746;1220;138695;-57
2022/07/04 20:50:50;;;;;;;19.10;6.40;;;;;;;27.67;41.55;99000.65;233606;1219;138625;-58
2022/07/04 20:55:53;;;;;;;22.80;6.20;;;;;;;27.57;41.88;98995.79;233324;1220;138693;-59
2022/07/04 21:00:56;;;;;;;25.30;6.90;;;;;;;27.48;42.58;98993.48;233227;1220;138967;-57
2022/07/04 21:05:59;;;;;;;19.50;6.90;;;;;;;27.38;42.89;98990.27;233141;1220;139447;-57
2022/07/04 21:11:02;;;;;;;27.80;6.50;;;;;;;27.30;43.15;98989.02;233016;1220;139334;-58
2022/07/04 21:16:07;;;;;;;25.70;6.40;;;;;;;27.20;43.33;98984.16;233029;1220;138999;-58
2022/07/04 21:21:11;;;;;;;23.40;6.30;;;;;;;27.17;43.61;98985.34;233027;1220;139403;-57
2022/07/04 21:26:14;;;;;;;19.70;6.60;;;;;;;27.12;43.74;98989.96;233055;1220;138817;-56
2022/07/04 21:31:17;;;;;;;19.70;5.90;;;;;;;27.06;44.12;98994.01;232923;1220;138439;-57
2022/07/04 21:36:20;;;;;;;15.20;5.50;;;;;;;27.00;44.42;98991.65;232640;1221;138667;-55
2022/07/04 21:41:23;;;;;;;14.30;6.20;;;;;;;26.93;44.76;98989.55;232702;1220;138944;-57
2022/07/04 21:46:26;;;;;;;12.50;5.70;;;;;;;26.84;44.82;98983.08;232752;1219;139505;-58
2022/07/04 21:51:29;;;;;;;15.30;5.80;;;;;;;26.78;45.13;98983.62;232920;1219;139244;-58
2022/07/04 21:56:32;;;;;;;12.90;5.40;;;;;;;26.72;45.34;98978.21;233062;1220;139061;-56
2022/07/04 22:01:35;;;;;;;8.60;4.60;;;;;;;26.74;45.28;98972.67;233026;1220;139019;-57
2022/07/04 22:06:38;;;;;;;7.60;4.80;;;;;;;26.76;44.99;98963.66;232935;1220;138738;-57
2022/07/04 22:11:41;;;;;;;8.40;5.40;;;;;;;26.86;45.08;98971.16;232738;1220;139510;-55
2022/07/04 22:16:44;;;;;;;7.90;5.50;;;;;;;26.82;45.18;98973.61;233187;1220;138699;-57
2022/07/04 22:21:48;;;;;;;8.80;6.10;;;;;;;26.80;45.16;98981.24;232771;1219;138229;-57
2022/07/04 22:26:51;;;;;;;8.80;5.80;;;;;;;26.74;45.33;98970.61;232606;1221;138561;-57
2022/07/04 22:31:54;;;;;;;9.00;5.90;;;;;;;26.70;45.63;98962.70;233075;1220;138480;-56
2022/07/04 22:36:57;;;;;;;12.00;5.50;;;;;;;26.63;45.78;98955.73;233240;1220;139551;-57
2022/07/04 22:42:00;;;;;;;9.50;5.90;;;;;;;26.58;45.86;98958.64;232860;1220;140603;-55
2022/07/04 22:47:03;;;;;;;7.50;5.30;;;;;;;26.51;45.85;98954.94;233008;1220;139573;-53
2022/07/04 22:52:06;;;;;;;6.80;4.70;;;;;;;26.50;45.77;98949.65;233022;1220;138755;-56
2022/07/04 22:57:09;;;;;;;9.00;5.10;;;;;;;26.48;45.68;98951.38;232991;1220;139247;-57
2022/07/04 23:02:12;;;;;;;7.00;4.40;;;;;;;26.49;45.48;98945.00;233141;1220;139060;-58
2022/07/04 23:07:16;;;;;;;5.90;4.40;;;;;;;26.50;45.61;98948.20;233053;1220;138580;-57
2022/07/04 23:12:20;;;;;;;6.00;4.50;;;;;;;26.51;45.28;98958.92;233044;1220;140026;-54
2022/07/04 23:17:23;;;;;;;8.00;4.80;;;;;;;26.50;45.19;98959.25;232629;1221;139026;-56
2022/07/04 23:22:26;;;;;;;8.20;4.50;;;;;;;26.46;45.29;98964.17;233031;1220;138400;-58
2022/07/04 23:27:29;;;;;;;6.30;4.30;;;;;;;26.40;45.13;98969.68;232776;1220;138576;-58
2022/07/04 23:32:32;;;;;;;5.20;4.40;;;;;;;26.35;45.25;98973.02;232750;1220;139634;-57
2022/07/04 23:37:35;;;;;;;5.70;4.30;;;;;;;26.30;45.31;98977.20;232927;1220;138200;-56
2022/07/04 23:42:38;;;;;;;7.90;4.60;;;;;;;26.22;45.34;98976.94;232958;1219;138855;-56
2022/07/04 23:47:41;;;;;;;6.50;4.00;;;;;;;26.15;45.46;98979.15;233065;1220;140322;-58
2022/07/04 23:52:44;;;;;;;6.10;3.60;;;;;;;26.12;45.55;98979.96;232758;1211;138323;-56